AfoVOS II — SV3346 — position and weather

sailwx.info

Track history (hours):
 
Tides and Currents Weather Stations Pressure Air Temp Water Temp Dewpoint Dewpoint Depression Visibility Wind Speed Wind Dir Waves Ship Positions

AfoVOS II

Last reported at 2017-Nov-19 16:48 UTC. Time now 2017-Nov-20 15:41 UTC.
Position N 37°06' E 025°22'.

Length 28 m; draft 3.5 m.

Type: Fishing. MMSI: 237699000.

Date/timePositionNaut miles runAvg speedWind from/ knotsBaromVisibWave heightAir tempDewpointWater temp
2017-Nov-19 16:48N 37°06' E 025°22'0 0.0
2017-Nov-19 16:30N 37°06' E 025°22'0 0.0
2017-Nov-19 16:00N 37°06' E 025°22'0 0.0
2017-Nov-19 15:30N 37°06' E 025°22'0 0.0
2017-Nov-19 15:00N 37°06' E 025°22'0 0.5
2017-Nov-19 14:31N 37°06' E 025°22'5 9.9
2017-Nov-19 14:01N 37°11' E 025°23'5 9.9
2017-Nov-19 13:30N 37°16' E 025°23'2 3.4
2017-Nov-19 13:00N 37°18' E 025°24'1 2.4
2017-Nov-19 12:30N 37°18' E 025°25'1 2.8
2017-Nov-19 12:00N 37°18' E 025°27'1 2.8
2017-Nov-19 11:30N 37°19' E 025°29'1 2.8
2017-Nov-19 11:00N 37°19' E 025°30'14 0.3
2017-Nov-17 17:28N 37°06' E 025°22'0 0.0
2017-Nov-17 17:00N 37°06' E 025°22'0 0.0
2017-Nov-17 16:30N 37°06' E 025°22'0 0.0
2017-Nov-17 16:00N 37°06' E 025°22'0 0.0
2017-Nov-17 15:30N 37°06' E 025°22'0 0.0
2017-Nov-17 15:00N 37°06' E 025°22'0 0.0
2017-Nov-17 14:30N 37°06' E 025°22'0 0.0
2017-Nov-17 14:00N 37°06' E 025°22'1 2.8
2017-Nov-17 13:30N 37°08' E 025°23'5 9.7
2017-Nov-17 13:00N 37°11' E 025°28'6 0.1
2017-Nov-15 16:45N 37°06' E 025°22'0 0.0
2017-Nov-15 16:30N 37°06' E 025°22'0 0.0
2017-Nov-15 16:00N 37°06' E 025°22'0 0.0
2017-Nov-15 15:30N 37°06' E 025°22'0 0.0
2017-Nov-15 15:00N 37°06' E 025°22'1 1.1
2017-Nov-15 14:30N 37°07' E 025°22'510.2
2017-Nov-15 14:00N 37°10' E 025°27'610.2
2017-Nov-15 13:26N 37°13' E 025°34'610.1
2017-Nov-15 12:52N 37°15' E 025°40'510.1
2017-Nov-15 12:24N 37°17' E 025°46'1 1.6
2017-Nov-15 12:01N 37°17' E 025°47'1 1.5
2017-Nov-15 11:30N 37°18' E 025°47'1 2.8
2017-Nov-15 11:00N 37°19' E 025°46'1 2.8
2017-Nov-15 10:30N 37°21' E 025°46'1 2.7
2017-Nov-15 10:00N 37°22' E 025°46'3 2.8
2017-Nov-15 09:06N 37°24' E 025°44'2 4.0
2017-Nov-15 08:43N 37°25' E 025°43'3 1.7
2017-Nov-15 06:52N 37°23' E 025°45'1 2.9
2017-Nov-15 06:30N 37°22' E 025°45'2 3.0
2017-Nov-15 06:00N 37°20' E 025°46'3 0.2
2017-Nov-14 15:09N 37°17' E 025°47'0 1.2
2017-Nov-14 15:00N 37°17' E 025°47'1 2.9
2017-Nov-14 14:30N 37°18' E 025°47'1 2.9
2017-Nov-14 14:00N 37°20' E 025°46'1 2.9
2017-Nov-14 13:30N 37°21' E 025°46'1 2.9
2017-Nov-14 13:00N 37°22' E 025°45'1 0.1
2017-Nov-14 07:09N 37°23' E 025°45'25 0.7
2017-Nov-12 17:19N 37°06' E 025°22'0 0.0
2017-Nov-12 17:00N 37°06' E 025°22'0 0.0
2017-Nov-12 16:30N 37°06' E 025°22'0 0.0
2017-Nov-12 16:00N 37°06' E 025°22'0 0.0
2017-Nov-12 15:30N 37°06' E 025°22'0 0.0
2017-Nov-12 15:00N 37°06' E 025°22'1 1.4
2017-Nov-12 14:30N 37°07' E 025°23'510.2
2017-Nov-12 14:00N 37°10' E 025°27'6 9.9
2017-Nov-12 13:24N 37°13' E 025°34'6 9.9
2017-Nov-12 12:51N 37°15' E 025°40'310.1
2017-Nov-12 12:30N 37°17' E 025°44'2 4.1
2017-Nov-12 12:00N 37°17' E 025°47'1 1.2
2017-Nov-12 11:30N 37°18' E 025°47'1 2.8
2017-Nov-12 11:00N 37°19' E 025°47'1 3.0
2017-Nov-12 10:30N 37°20' E 025°46'1 3.0
2017-Nov-12 10:00N 37°22' E 025°46'1 0.5
2017-Nov-12 07:06N 37°23' E 025°45'0 3.0
2017-Nov-12 07:00N 37°23' E 025°45'1 2.9
2017-Nov-12 06:30N 37°22' E 025°46'1 2.9
2017-Nov-12 06:01N 37°20' E 025°47'1 2.8
2017-Nov-12 05:30N 37°19' E 025°47'4 0.3
2017-Nov-11 15:23N 37°15' E 025°45'1 2.9
2017-Nov-11 15:00N 37°16' E 025°45'1 2.9
2017-Nov-11 14:30N 37°18' E 025°46'1 2.9
2017-Nov-11 14:00N 37°19' E 025°46'1 2.9
2017-Nov-11 13:30N 37°21' E 025°46'1 2.9
2017-Nov-11 13:00N 37°22' E 025°45'4 1.4
2017-Nov-11 09:48N 37°27' E 025°47'1 2.7
2017-Nov-11 09:30N 37°26' E 025°46'4 0.9
2017-Nov-11 05:28N 37°22' E 025°45'24 1.9
2017-Nov-10 17:09N 37°06' E 025°22'0 0.0
2017-Nov-10 17:01N 37°06' E 025°22'0 0.0
2017-Nov-10 16:31N 37°06' E 025°22'0 0.0
2017-Nov-10 16:01N 37°06' E 025°22'0 0.0
2017-Nov-10 15:31N 37°06' E 025°22'0 0.0
2017-Nov-10 15:00N 37°06' E 025°22'1 1.3
2017-Nov-10 14:30N 37°07' E 025°22'510.1
2017-Nov-10 14:01N 37°11' E 025°27'610.4
2017-Nov-10 13:27N 37°14' E 025°32'13 4.8
2017-Nov-10 10:42N 37°25' E 025°42'4 1.7
2017-Nov-10 08:30N 37°26' E 025°47'0 0.4
2017-Nov-10 08:00N 37°26' E 025°47'  
Track history (hours):
 
Tides and Currents Weather Stations Pressure Air Temp Water Temp Dewpoint Dewpoint Depression Visibility Wind Speed Wind Dir Waves Ship Positions

AfoVOS II

Last reported at 2017-Nov-19 16:48 UTC. Time now 2017-Nov-20 15:41 UTC.
Position N 37°06' E 025°22'.

Length 28 m; draft 3.5 m.

Type: Fishing. MMSI: 237699000.

Date/timePositionNaut miles runAvg speedWind from/ knotsBaromVisibWave heightAir tempDewpointWater temp
2017-Nov-19 16:48N 37°06' E 025°22'0 0.0
2017-Nov-19 16:30N 37°06' E 025°22'0 0.0
2017-Nov-19 16:00N 37°06' E 025°22'0 0.0
2017-Nov-19 15:30N 37°06' E 025°22'0 0.0
2017-Nov-19 15:00N 37°06' E 025°22'0 0.5
2017-Nov-19 14:31N 37°06' E 025°22'5 9.9
2017-Nov-19 14:01N 37°11' E 025°23'5 9.9
2017-Nov-19 13:30N 37°16' E 025°23'2 3.4
2017-Nov-19 13:00N 37°18' E 025°24'1 2.4
2017-Nov-19 12:30N 37°18' E 025°25'1 2.8
2017-Nov-19 12:00N 37°18' E 025°27'1 2.8
2017-Nov-19 11:30N 37°19' E 025°29'1 2.8
2017-Nov-19 11:00N 37°19' E 025°30'14 0.3
2017-Nov-17 17:28N 37°06' E 025°22'0 0.0
2017-Nov-17 17:00N 37°06' E 025°22'0 0.0
2017-Nov-17 16:30N 37°06' E 025°22'0 0.0
2017-Nov-17 16:00N 37°06' E 025°22'0 0.0
2017-Nov-17 15:30N 37°06' E 025°22'0 0.0
2017-Nov-17 15:00N 37°06' E 025°22'0 0.0
2017-Nov-17 14:30N 37°06' E 025°22'0 0.0
2017-Nov-17 14:00N 37°06' E 025°22'1 2.8
2017-Nov-17 13:30N 37°08' E 025°23'5 9.7
2017-Nov-17 13:00N 37°11' E 025°28'6 0.1
2017-Nov-15 16:45N 37°06' E 025°22'0 0.0
2017-Nov-15 16:30N 37°06' E 025°22'0 0.0
2017-Nov-15 16:00N 37°06' E 025°22'0 0.0
2017-Nov-15 15:30N 37°06' E 025°22'0 0.0
2017-Nov-15 15:00N 37°06' E 025°22'1 1.1
2017-Nov-15 14:30N 37°07' E 025°22'510.2
2017-Nov-15 14:00N 37°10' E 025°27'610.2
2017-Nov-15 13:26N 37°13' E 025°34'610.1
2017-Nov-15 12:52N 37°15' E 025°40'510.1
2017-Nov-15 12:24N 37°17' E 025°46'1 1.6
2017-Nov-15 12:01N 37°17' E 025°47'1 1.5
2017-Nov-15 11:30N 37°18' E 025°47'1 2.8
2017-Nov-15 11:00N 37°19' E 025°46'1 2.8
2017-Nov-15 10:30N 37°21' E 025°46'1 2.7
2017-Nov-15 10:00N 37°22' E 025°46'3 2.8
2017-Nov-15 09:06N 37°24' E 025°44'2 4.0
2017-Nov-15 08:43N 37°25' E 025°43'3 1.7
2017-Nov-15 06:52N 37°23' E 025°45'1 2.9
2017-Nov-15 06:30N 37°22' E 025°45'2 3.0
2017-Nov-15 06:00N 37°20' E 025°46'3 0.2
2017-Nov-14 15:09N 37°17' E 025°47'0 1.2
2017-Nov-14 15:00N 37°17' E 025°47'1 2.9
2017-Nov-14 14:30N 37°18' E 025°47'1 2.9
2017-Nov-14 14:00N 37°20' E 025°46'1 2.9
2017-Nov-14 13:30N 37°21' E 025°46'1 2.9
2017-Nov-14 13:00N 37°22' E 025°45'1 0.1
2017-Nov-14 07:09N 37°23' E 025°45'25 0.7
2017-Nov-12 17:19N 37°06' E 025°22'0 0.0
2017-Nov-12 17:00N 37°06' E 025°22'0 0.0
2017-Nov-12 16:30N 37°06' E 025°22'0 0.0
2017-Nov-12 16:00N 37°06' E 025°22'0 0.0
2017-Nov-12 15:30N 37°06' E 025°22'0 0.0
2017-Nov-12 15:00N 37°06' E 025°22'1 1.4
2017-Nov-12 14:30N 37°07' E 025°23'510.2
2017-Nov-12 14:00N 37°10' E 025°27'6 9.9
2017-Nov-12 13:24N 37°13' E 025°34'6 9.9
2017-Nov-12 12:51N 37°15' E 025°40'310.1
2017-Nov-12 12:30N 37°17' E 025°44'2 4.1
2017-Nov-12 12:00N 37°17' E 025°47'1 1.2
2017-Nov-12 11:30N 37°18' E 025°47'1 2.8
2017-Nov-12 11:00N 37°19' E 025°47'1 3.0
2017-Nov-12 10:30N 37°20' E 025°46'1 3.0
2017-Nov-12 10:00N 37°22' E 025°46'1 0.5
2017-Nov-12 07:06N 37°23' E 025°45'0 3.0
2017-Nov-12 07:00N 37°23' E 025°45'1 2.9
2017-Nov-12 06:30N 37°22' E 025°46'1 2.9
2017-Nov-12 06:01N 37°20' E 025°47'1 2.8
2017-Nov-12 05:30N 37°19' E 025°47'4 0.3
2017-Nov-11 15:23N 37°15' E 025°45'1 2.9
2017-Nov-11 15:00N 37°16' E 025°45'1 2.9
2017-Nov-11 14:30N 37°18' E 025°46'1 2.9
2017-Nov-11 14:00N 37°19' E 025°46'1 2.9
2017-Nov-11 13:30N 37°21' E 025°46'1 2.9
2017-Nov-11 13:00N 37°22' E 025°45'4 1.4
2017-Nov-11 09:48N 37°27' E 025°47'1 2.7
2017-Nov-11 09:30N 37°26' E 025°46'4 0.9
2017-Nov-11 05:28N 37°22' E 025°45'24 1.9
2017-Nov-10 17:09N 37°06' E 025°22'0 0.0
2017-Nov-10 17:01N 37°06' E 025°22'0 0.0
2017-Nov-10 16:31N 37°06' E 025°22'0 0.0
2017-Nov-10 16:01N 37°06' E 025°22'0 0.0
2017-Nov-10 15:31N 37°06' E 025°22'0 0.0
2017-Nov-10 15:00N 37°06' E 025°22'1 1.3
2017-Nov-10 14:30N 37°07' E 025°22'510.1
2017-Nov-10 14:01N 37°11' E 025°27'610.4
2017-Nov-10 13:27N 37°14' E 025°32'13 4.8
2017-Nov-10 10:42N 37°25' E 025°42'4 1.7
2017-Nov-10 08:30N 37°26' E 025°47'0 0.4
2017-Nov-10 08:00N 37°26' E 025°47'  

Dump ship's entire track history